createdAt,value
2023-01-29T00:04:52.838Z,-0.83
2023-01-29T00:09:55.512Z,-0.91
2023-01-29T00:14:56.180Z,-0.91
2023-01-29T00:19:56.831Z,-0.90
2023-01-29T00:24:59.240Z,-0.80
2023-01-29T00:30:14.028Z,-0.85
2023-01-29T00:35:14.912Z,-0.94
2023-01-29T00:40:18.464Z,-1.01
2023-01-29T00:45:19.824Z,-1.02
2023-01-29T00:50:20.728Z,-1.06
2023-01-29T00:55:23.594Z,-1.16
2023-01-29T01:00:25.824Z,-1.08
2023-01-29T01:05:26.529Z,-1.00
2023-01-29T01:10:31.247Z,-0.98
2023-01-29T01:15:34.873Z,-1.00
2023-01-29T01:20:36.864Z,-0.99
2023-01-29T01:25:38.874Z,-0.83
2023-01-29T01:30:39.661Z,-1.03
2023-01-29T01:35:41.152Z,-1.00
2023-01-29T01:40:47.275Z,-1.00
2023-01-29T01:45:48.514Z,-0.88
2023-01-29T01:50:53.130Z,-1.01
2023-01-29T01:55:59.981Z,-1.11
2023-01-29T02:01:01.286Z,-1.15
2023-01-29T02:06:19.365Z,-1.14
2023-01-29T02:11:21.719Z,-1.08
2023-01-29T02:16:23.013Z,-1.27
2023-01-29T02:21:54.247Z,-1.26
2023-01-29T02:27:06.055Z,-1.37
2023-01-29T02:32:18.353Z,-1.23
2023-01-29T02:37:25.016Z,-1.39
2023-01-29T02:42:29.436Z,-1.44
2023-01-29T02:47:36.207Z,-1.47
2023-01-29T02:52:44.694Z,-1.63
2023-01-29T02:57:50.034Z,-1.60
2023-01-29T03:02:56.400Z,-1.78
2023-01-29T03:08:02.902Z,-1.82
2023-01-29T03:13:14.292Z,-1.75
2023-01-29T03:18:19.910Z,-1.75
2023-01-29T03:23:24.195Z,-1.77
2023-01-29T03:28:42.872Z,-1.76
2023-01-29T03:33:51.488Z,-1.68
2023-01-29T03:38:52.194Z,-1.71
2023-01-29T03:44:02.345Z,-1.84
2023-01-29T03:49:13.166Z,-1.90
2023-01-29T03:54:19.585Z,-1.91
2023-01-29T03:59:32.477Z,-1.94
2023-01-29T04:05:06.709Z,-2.03
2023-01-29T04:10:16.842Z,-2.09
2023-01-29T04:15:20.069Z,-2.29
2023-01-29T04:20:23.951Z,-2.21
2023-01-29T04:25:30.216Z,-2.24
2023-01-29T04:30:43.740Z,-2.32
2023-01-29T04:36:02.079Z,-2.41
2023-01-29T04:41:11.363Z,-2.33
2023-01-29T04:46:17.520Z,-2.27
2023-01-29T04:51:25.762Z,-2.28
2023-01-29T04:56:32.244Z,-2.40
2023-01-29T05:01:34.987Z,-2.48
2023-01-29T05:06:38.797Z,-2.34
2023-01-29T05:11:39.477Z,-2.40
2023-01-29T05:16:46.039Z,-2.38
2023-01-29T05:21:50.294Z,-2.33
2023-01-29T05:27:11.449Z,-2.40
2023-01-29T05:32:12.171Z,-2.49
2023-01-29T05:37:14.160Z,-2.58
2023-01-29T05:42:14.852Z,-2.55
2023-01-29T05:47:15.529Z,-2.57
2023-01-29T05:52:17.563Z,-2.56
2023-01-29T05:57:18.258Z,-2.56
2023-01-29T06:02:18.909Z,-2.60
2023-01-29T06:07:20.912Z,-2.61
2023-01-29T06:12:23.045Z,-2.60
2023-01-29T06:17:23.851Z,-2.51
2023-01-29T06:22:25.979Z,-2.56
2023-01-29T06:27:26.715Z,-2.47
2023-01-29T06:32:28.341Z,-2.24
2023-01-29T06:37:30.414Z,-1.92
2023-01-29T06:42:31.639Z,-2.16
2023-01-29T06:47:32.332Z,-2.05
2023-01-29T06:52:34.383Z,-2.23
2023-01-29T06:57:35.062Z,-2.19
2023-01-29T07:02:35.888Z,-1.97
2023-01-29T07:07:37.950Z,-1.88
2023-01-29T07:12:38.609Z,-1.79
2023-01-29T07:17:39.310Z,-1.64
2023-01-29T07:22:41.276Z,-1.62
2023-01-29T07:27:42.130Z,-1.62
2023-01-29T07:32:43.237Z,-1.60
2023-01-29T07:37:45.259Z,-1.54
2023-01-29T07:42:46.017Z,-1.63
2023-01-29T07:47:46.688Z,-1.68
2023-01-29T07:52:48.805Z,-1.35
2023-01-29T07:57:55.724Z,-1.31
2023-01-29T08:03:03.170Z,-1.03
2023-01-29T08:08:07.497Z,-1.07
2023-01-29T08:13:09.258Z,-0.74
2023-01-29T08:18:10.197Z,-0.65
2023-01-29T08:23:15.540Z,-0.46
2023-01-29T08:28:16.367Z,-0.67
2023-01-29T08:33:19.492Z,-0.49
2023-01-29T08:38:23.561Z,-0.36
2023-01-29T08:43:24.212Z,-0.52
2023-01-29T08:48:25.265Z,-0.38
2023-01-29T08:53:27.447Z,-0.26
2023-01-29T08:58:28.290Z,-0.37
2023-01-29T09:03:28.964Z,-0.46
2023-01-29T09:08:31.003Z,-0.47
2023-01-29T09:13:31.799Z,-0.54
2023-01-29T09:18:32.845Z,-0.34
2023-01-29T09:23:35.061Z,-0.27
2023-01-29T09:28:35.761Z,0.26
2023-01-29T09:33:36.594Z,-0.17
2023-01-29T09:38:38.646Z,0.04
2023-01-29T09:43:48.973Z,0.27
2023-01-29T09:48:58.770Z,0.04
2023-01-29T09:54:13.104Z,0.13
2023-01-29T09:59:19.276Z,0.09
2023-01-29T10:04:48.441Z,0.05
2023-01-29T10:10:04.859Z,0.19
2023-01-29T10:15:19.463Z,-0.05
2023-01-29T10:20:36.625Z,0.27
2023-01-29T10:25:41.920Z,0.80
2023-01-29T10:30:48.463Z,0.65
2023-01-29T10:35:53.791Z,0.95
2023-01-29T10:41:08.627Z,0.85
2023-01-29T10:46:22.684Z,0.74
2023-01-29T10:51:41.151Z,0.78
2023-01-29T10:56:55.847Z,0.97
2023-01-29T11:01:59.113Z,0.91
2023-01-29T11:07:00.739Z,1.15
2023-01-29T11:12:06.450Z,0.90
2023-01-29T11:17:07.173Z,1.20
2023-01-29T11:22:15.189Z,1.10
2023-01-29T11:27:25.863Z,0.94
2023-01-29T11:32:29.692Z,0.85
2023-01-29T11:37:36.298Z,1.16
2023-01-29T11:42:39.280Z,1.18
2023-01-29T11:47:40.084Z,1.27
2023-01-29T11:52:42.328Z,1.60
2023-01-29T11:57:47.776Z,1.44
2023-01-29T12:02:51.792Z,1.62
2023-01-29T12:07:54.791Z,1.69
2023-01-29T12:13:05.757Z,1.67
2023-01-29T12:18:15.145Z,1.98
2023-01-29T12:23:26.702Z,2.14
2023-01-29T12:28:49.507Z,2.22
2023-01-29T12:33:55.315Z,2.18
2023-01-29T12:38:56.503Z,1.90
2023-01-29T12:44:03.504Z,2.03
2023-01-29T12:49:11.311Z,2.06
2023-01-29T12:54:17.401Z,1.89
2023-01-29T12:59:29.093Z,1.78
2023-01-29T13:04:41.218Z,2.00
2023-01-29T13:09:47.627Z,2.72
2023-01-29T13:14:54.747Z,2.60
2023-01-29T13:20:00.432Z,2.66
2023-01-29T13:25:05.792Z,2.37
2023-01-29T13:30:09.927Z,2.19
2023-01-29T13:35:15.737Z,2.11
2023-01-29T13:40:21.782Z,2.36
2023-01-29T13:45:26.314Z,2.45
2023-01-29T13:50:33.878Z,2.25
2023-01-29T13:55:37.308Z,2.01
2023-01-29T14:01:01.662Z,2.07
2023-01-29T14:06:02.955Z,1.68
2023-01-29T14:11:36.053Z,1.97
2023-01-29T14:16:38.543Z,2.03
2023-01-29T14:21:39.676Z,1.87
2023-01-29T14:26:46.020Z,1.81
2023-01-29T14:31:53.107Z,1.63
2023-01-29T14:36:57.148Z,1.70
2023-01-29T14:41:59.127Z,1.75
2023-01-29T14:47:01.286Z,1.69
2023-01-29T14:52:02.493Z,1.55
2023-01-29T14:57:07.230Z,1.61
2023-01-29T15:02:18.440Z,1.62
2023-01-29T15:07:29.167Z,1.54
2023-01-29T15:12:35.490Z,1.39
2023-01-29T15:17:47.138Z,1.32
2023-01-29T15:22:48.045Z,1.23
2023-01-29T15:27:50.140Z,1.84
2023-01-29T15:32:53.011Z,1.25
2023-01-29T15:38:01.628Z,0.95
2023-01-29T15:43:02.407Z,1.78
2023-01-29T15:48:09.482Z,1.28
2023-01-29T15:53:17.211Z,1.67
2023-01-29T15:58:21.739Z,1.12
2023-01-29T16:03:26.524Z,0.92
2023-01-29T16:08:28.968Z,0.68
2023-01-29T16:13:32.465Z,0.88
2023-01-29T16:18:38.303Z,0.76
2023-01-29T16:23:44.296Z,0.87
2023-01-29T16:28:46.281Z,0.79
2023-01-29T16:33:49.576Z,0.89
2023-01-29T16:38:54.240Z,1.18
2023-01-29T16:43:57.364Z,1.16
2023-01-29T16:48:59.655Z,0.97
2023-01-29T16:54:03.003Z,0.99
2023-01-29T16:59:05.441Z,0.88
2023-01-29T17:04:12.615Z,0.62
2023-01-29T17:09:22.114Z,0.74
2023-01-29T17:14:25.040Z,0.85
2023-01-29T17:19:27.050Z,0.76
2023-01-29T17:24:27.761Z,0.75
2023-01-29T17:29:31.106Z,0.85
2023-01-29T17:34:33.102Z,0.65
2023-01-29T17:39:33.766Z,0.76
2023-01-29T17:44:34.419Z,0.72
2023-01-29T17:49:37.405Z,0.56
2023-01-29T17:54:38.371Z,0.59
2023-01-29T17:59:39.098Z,0.66
2023-01-29T18:04:41.463Z,0.73
2023-01-29T18:09:43.543Z,0.65
2023-01-29T18:14:44.293Z,0.48
2023-01-29T18:19:46.408Z,0.64
2023-01-29T18:24:47.102Z,0.41
2023-01-29T18:29:50.009Z,0.46
2023-01-29T18:34:52.033Z,0.43
2023-01-29T18:39:53.918Z,0.39
2023-01-29T18:44:54.628Z,0.33
2023-01-29T18:49:56.606Z,0.25
2023-01-29T18:54:57.318Z,0.23
2023-01-29T18:59:58.017Z,0.07
2023-01-29T19:05:00.322Z,0.14
2023-01-29T19:10:02.343Z,0.15
2023-01-29T19:15:03.041Z,0.05
2023-01-29T19:20:05.752Z,-0.08
2023-01-29T19:25:07.428Z,0.02
2023-01-29T19:30:10.248Z,0.05
2023-01-29T19:35:13.326Z,-0.07
2023-01-29T19:40:14.832Z,-0.13
2023-01-29T19:45:15.819Z,0.26
2023-01-29T19:50:18.447Z,0.20
2023-01-29T19:55:20.115Z,-0.01
2023-01-29T20:00:22.086Z,-0.05
2023-01-29T20:05:24.125Z,-0.07
2023-01-29T20:10:27.620Z,-0.10
2023-01-29T20:15:28.373Z,-0.31
2023-01-29T20:20:32.858Z,-0.24
2023-01-29T20:25:33.668Z,-0.39
2023-01-29T20:30:34.836Z,-0.36
2023-01-29T20:35:38.298Z,-0.55
2023-01-29T20:40:39.089Z,-0.69
2023-01-29T20:45:40.694Z,-0.78
2023-01-29T20:50:43.930Z,-0.82
2023-01-29T20:55:46.071Z,-0.76
2023-01-29T21:00:47.740Z,-0.84
2023-01-29T21:05:50.327Z,-0.80
2023-01-29T21:10:52.978Z,-0.93
2023-01-29T21:15:53.790Z,-0.82
2023-01-29T21:20:56.092Z,-1.05
2023-01-29T21:26:02.219Z,-1.06
2023-01-29T21:31:04.654Z,-1.02
2023-01-29T21:36:08.474Z,-1.02
2023-01-29T21:41:10.755Z,-0.93
2023-01-29T21:46:12.463Z,-0.93
2023-01-29T21:51:14.594Z,-0.84
2023-01-29T21:56:19.539Z,-0.85
2023-01-29T22:01:38.179Z,-0.90
2023-01-29T22:06:40.711Z,-0.79
2023-01-29T22:11:44.505Z,-0.86
2023-01-29T22:16:45.471Z,-0.65
2023-01-29T22:21:47.568Z,-0.62
2023-01-29T22:26:50.724Z,-0.57
2023-01-29T22:31:51.421Z,-0.61
2023-01-29T22:36:53.821Z,-0.64
2023-01-29T22:41:54.497Z,-0.54
2023-01-29T22:46:55.376Z,-0.72
2023-01-29T22:52:10.807Z,-0.56
2023-01-29T22:57:13.469Z,-0.39
2023-01-29T23:02:14.135Z,-0.67
2023-01-29T23:07:16.144Z,-0.59
2023-01-29T23:12:17.101Z,-0.58
2023-01-29T23:17:17.753Z,-0.49
2023-01-29T23:22:19.793Z,-0.58
2023-01-29T23:27:20.444Z,-0.60
2023-01-29T23:32:22.083Z,-0.75
2023-01-29T23:37:24.257Z,-0.50
2023-01-29T23:42:24.989Z,-0.37
2023-01-29T23:47:25.631Z,-0.40
2023-01-29T23:52:27.602Z,-0.53
2023-01-29T23:57:28.331Z,-0.61
